SBRB/RBR METAR and TAF weather

Enter ICAO airport designator
Station Type Date Time Source
SBRB METAR 2019/12/06 14:00 UTC NOAA

SBRB 061400Z 26008KT 9999 SCT013 SCT100 27/25 Q1014


Station Type Date Time Source
SBRB Decoded METAR 2019/12/06 14:00 UTC NOAA

Rio Branco, Brazil (SBRB) 10-00S 067-48W 143M
Dec 06, 2019 - 09:00 AM EST / 2019.12.06 1400 UTC
Wind: from the W (260 degrees) at 9 MPH (8 KT):0
Visibility: greater than 7 mile(s):0
Sky conditions: partly cloudy
Temperature: 80 F (27 C)
Dew Point: 77 F (25 C)
Relative Humidity: 88%
Pressure (altimeter): 29.94 in. Hg (1014 hPa)
ob: SBRB 061400Z 26008KT 9999 SCT013 SCT100 27/25 Q1014
cycle: 14

Station Type Date Time Source
SBRB TAF 2019/12/06 12:09 UTC NOAA

TAF SBRB 060900Z 0612/0624 28005KT 8000 SCT020 TX31/0617Z TN26/0624Z PROB40 0612/0616 5000 RA BKN017
BECMG 0617/0619 31005KT SCT025 FEW030TCU
RMK PGU

Example: see airport list